Buckner, Kentucky
Current Conditions -  °F | °C
As of 11:53 AM on Saturday 20 Dec 2014 (Local Time) from KLOU Reporting Station
Overcast Overcast  
Wind Chill: 34°   Ceiling: 5500
Heat Index: 34°   Visibility: 7mi
Dew Point: 26°   Wind: 0mph
Humidity: 73%   Direction: NA
Pressure: 30.3"   Gusts: NA
Location:  38.38°N, 85.44°W
Report Text: KLOU 201653Z 00000KT 7SM FEW017 OVC055 01/M03 A3030 RMK AO2 SLP266 T00111033
Loading
Personal Weather Stations






























Interactive Weather Map New forecast layout! Learn more

10-Day Weather Forecast

Advertisements
Track Severe Weather on mobile